This is the latest recevied weather packets stored in our database for station/object AA0PB. If no packets are shown the sender has not sent any weather packets the latest 10 day(s).
| Time | Temp. | Humidity | Pressure | Rain* | Wind** | Luminosity | Snow |
|---|---|---|---|---|---|---|---|
| 1777939960 | 25.56° C | 57% | 1011.5 hPa | 0 mm | - | 354 W/m² | - |
| 1777939657 | 25.56° C | 59% | 1011.3 hPa | 0 mm | - | 366 W/m² | - |
| 1777939355 | 25.56° C | 58% | 1011.5 hPa | 0 mm | - | 379 W/m² | - |
| 1777939051 | 25° C | 60% | 1011.2 hPa | 0 mm | - | 388 W/m² | - |
| 1777938747 | 25° C | 59% | 1011.4 hPa | 0 mm | - | 398 W/m² | - |
| 1777938445 | 25° C | 59% | 1011.1 hPa | 0 mm | - | 413 W/m² | - |
| 1777938142 | 25° C | 59% | 1011.3 hPa | 0 mm | - | 424 W/m² | - |
| 1777937838 | 25.56° C | 57% | 1011.3 hPa | 0 mm | - | 434 W/m² | - |
| 1777937534 | 25.56° C | 59% | 1011.4 hPa | 0 mm | - | 293 W/m² | - |
| 1777937231 | 24.44° C | 58% | 1011.6 hPa | 0 mm | - | 462 W/m² | - |
| 1777936928 | 25° C | 57% | 1011.4 hPa | 0 mm | - | 473 W/m² | - |
| 1777936625 | 25° C | 58% | 1011.5 hPa | 0 mm | - | 489 W/m² | - |
| 1777936321 | 24.44° C | 59% | 1011.3 hPa | 0 mm | - | 497 W/m² | - |
| 1777936017 | 24.44° C | 60% | 1011.7 hPa | 0 mm | - | 515 W/m² | - |
| 1777935716 | 25° C | 59% | 1011.6 hPa | 0 mm | - | 522 W/m² | - |
| 1777935415 | 24.44° C | 59% | 1011.5 hPa | 0 mm | - | 501 W/m² | - |
| 1777935110 | 23.89° C | 59% | 1011.7 hPa | 0 mm | - | 533 W/m² | - |
| 1777934808 | 25° C | 58% | 1011.7 hPa | 0 mm | - | 550 W/m² | - |
| 1777934504 | 24.44° C | 60% | 1012 hPa | 0 mm | - | 538 W/m² | - |
| 1777934201 | 24.44° C | 57% | 1011.9 hPa | 0 mm | - | 573 W/m² | - |
| 1777933896 | 24.44° C | 58% | 1012 hPa | 0 mm | - | 573 W/m² | - |
| 1777933594 | 23.89° C | 61% | 1011.8 hPa | 0 mm | - | 583 W/m² | - |
| 1777933291 | 24.44° C | 57% | 1012.1 hPa | 0 mm | - | 593 W/m² | - |
| 1777932988 | 24.44° C | 58% | 1011.9 hPa | 0 mm | - | 594 W/m² | - |
| 1777932685 | 25.56° C | 55% | 1012.2 hPa | 0 mm | - | 609 W/m² | - |
* Rain latest hour (hover to see other rain measurements)
** Current wind speed in m/s (hover to see current wind gust speed)